Time;durP1;ratioP1;P1;durP2;ratioP2;P2;SDS_P1;SDS_P2;PMS_P1;PMS_P2;Temp;Humidity;BMP_temperature;BMP_pressure;BME280_temperature;BME280_humidity;BME280_pressure;Samples;Min_cycle;Max_cycle;Signal;HPM_P1;HPM_P2
2022/02/02 00:04:50;;;;;;;44.10;21.33;;;-2.10;73.10;;;;;;4926987;29;20069;-91
2022/02/02 00:07:45;;;;;;;40.60;19.40;;;-2.10;73.50;;;;;;4909581;29;20031;-91
2022/02/02 00:10:20;;;;;;;40.60;19.67;;;-2.00;74.00;;;;;;4924164;29;20027;-92
2022/02/02 00:12:50;;;;;;;49.72;19.10;;;-2.00;74.80;;;;;;4922116;29;20036;-89
2022/02/02 00:17:56;;;;;;;41.58;20.08;;;-2.00;74.70;;;;;;4944047;29;20020;-90
2022/02/02 00:20:28;;;;;;;39.88;20.00;;;-1.90;75.10;;;;;;4930365;29;20024;-91
2022/02/02 00:22:58;;;;;;;39.45;18.52;;;-1.90;74.80;;;;;;4904012;29;20028;-91
2022/02/02 00:25:31;;;;;;;32.70;16.95;;;-1.90;74.80;;;;;;4902893;29;20031;-91
2022/02/02 00:27:59;;;;;;;39.92;19.77;;;-1.80;75.10;;;;;;4902933;29;20036;-91
2022/02/02 00:30:30;;;;;;;36.17;18.25;;;-1.80;74.80;;;;;;4902791;29;20068;-90
2022/02/02 00:33:14;;;;;;;38.08;18.23;;;-1.80;75.20;;;;;;4918379;29;20101;-89
2022/02/02 00:35:45;;;;;;;36.50;17.75;;;-1.70;76.00;;;;;;4921624;29;20055;-89
2022/02/02 00:38:12;;;;;;;35.88;17.02;;;-1.70;75.80;;;;;;4939380;29;20036;-88
2022/02/02 00:40:37;;;;;;;35.58;17.40;;;-1.70;75.70;;;;;;4921576;29;20056;-88
2022/02/02 00:43:03;;;;;;;34.67;17.58;;;-1.70;75.60;;;;;;4913459;29;20040;-88
2022/02/02 00:45:43;;;;;;;37.03;17.45;;;-1.60;76.70;;;;;;4912809;29;20123;-88
2022/02/02 00:48:11;;;;;;;;;;;-1.60;76.50;;;;;;4926786;29;20036;-88
2022/02/02 00:50:37;;;;;;;30.58;14.93;;;-1.60;77.90;;;;;;4903193;29;19954;-89
2022/02/02 00:53:03;;;;;;;29.75;13.30;;;-1.60;76.10;;;;;;4901742;29;20550;-91
2022/02/02 00:55:29;;;;;;;27.08;13.43;;;-1.60;76.10;;;;;;4902567;29;20064;-91
2022/02/02 00:57:55;;;;;;;28.67;14.27;;;-1.70;76.20;;;;;;4903151;29;20383;-90
2022/02/02 01:00:20;;;;;;;33.70;15.43;;;-1.80;77.10;;;;;;4907659;29;20024;-90
2022/02/02 01:02:46;;;;;;;35.58;16.10;;;-1.80;78.30;;;;;;4905680;29;20032;-91
2022/02/02 01:05:13;;;;;;;34.33;17.55;;;-1.80;77.50;;;;;;4903470;29;20035;-90
2022/02/02 01:28:30;;;;;;;36.67;18.02;;;-1.80;78.60;;;;;;4904311;29;20084;-90
2022/02/02 01:30:56;;;;;;;40.42;18.95;;;-1.80;80.10;;;;;;4905687;29;20024;-89
2022/02/02 01:33:22;;;;;;;37.25;17.08;;;-1.80;79.80;;;;;;4911764;29;20031;-89
2022/02/02 01:35:49;;;;;;;35.65;15.93;;;-1.90;80.20;;;;;;4911201;29;20485;-88
2022/02/02 01:38:15;;;;;;;32.30;16.30;;;-1.90;81.00;;;;;;4902692;29;20040;-89
2022/02/02 01:40:46;;;;;;;29.63;14.48;;;-1.80;81.70;;;;;;4901082;29;20028;-89
2022/02/02 01:43:25;;;;;;;34.25;15.68;;;-1.80;80.70;;;;;;4900701;29;20083;-89
2022/02/02 01:46:03;;;;;;;26.92;13.10;;;-1.80;81.30;;;;;;4914582;29;20412;-89
2022/02/02 01:48:42;;;;;;;;;;;-1.80;81.10;;;;;;4886811;29;20467;-89
2022/02/02 01:56:02;;;;;;;28.73;14.05;;;-1.80;81.70;;;;;;4920890;29;20043;-88
2022/02/02 02:00:54;;;;;;;34.30;15.73;;;-1.90;81.30;;;;;;4921970;29;20123;-88
2022/02/02 02:03:22;;;;;;;29.27;15.13;;;-1.90;80.90;;;;;;4904709;29;20059;-89
2022/02/02 02:05:48;;;;;;;31.83;14.25;;;-2.00;80.80;;;;;;4904300;29;20024;-88
2022/02/02 02:08:15;;;;;;;33.55;15.20;;;-2.00;80.20;;;;;;4904637;29;20036;-88
2022/02/02 02:10:41;;;;;;;46.92;22.13;;;-2.10;81.70;;;;;;4904976;29;20115;-88
2022/02/02 02:13:25;;;;;;;46.70;21.85;;;-2.20;82.30;;;;;;4911973;29;20035;-87
2022/02/02 02:15:51;;;;;;;51.33;22.05;;;-2.20;82.80;;;;;;4933640;29;20095;-90
2022/02/02 02:18:18;;;;;;;63.40;30.45;;;-2.30;81.40;;;;;;4905668;29;20452;-89
2022/02/02 02:20:44;;;;;;;56.80;25.95;;;-2.30;83.60;;;;;;4907026;29;20028;-89
2022/02/02 02:23:10;;;;;;;46.78;21.83;;;-2.40;83.50;;;;;;4904147;29;20028;-89
2022/02/02 02:25:41;;;;;;;45.90;21.42;;;-2.40;82.70;;;;;;4904607;29;20036;-90
2022/02/02 02:30:56;;;;;;;37.97;17.77;;;-2.40;88.30;;;;;;4923036;29;19913;-90
2022/02/02 02:58:13;;;;;;;40.58;19.17;;;-2.30;83.60;;;;;;4920466;29;20038;-87
2022/02/02 03:14:46;;;;;;;37.80;16.80;;;-2.40;86.20;;;;;;4920362;29;20088;-88
2022/02/02 03:30:48;;;;;;;31.77;15.10;;;-2.30;86.50;;;;;;4932341;29;20035;-89
2022/02/02 04:03:14;;;;;;;37.35;17.23;;;-2.20;87.30;;;;;;4919047;29;20184;-87
2022/02/02 04:05:44;;;;;;;37.90;18.90;;;-2.20;88.40;;;;;;4931636;29;20028;-84
2022/02/02 04:10:42;;;;;;;50.63;22.10;;;-2.30;89.10;;;;;;4924615;29;20035;-86
2022/02/02 04:13:19;;;;;;;49.00;22.83;;;-2.30;89.80;;;;;;4912553;29;20529;-86
2022/02/02 04:59:35;;;;;;;66.60;27.35;;;-2.60;87.80;;;;;;4917931;29;20368;-88
2022/02/02 05:07:33;;;;;;;67.75;29.30;;;-2.70;88.90;;;;;;4918590;29;20078;-87
2022/02/02 05:53:12;;;;;;;35.53;14.50;;;-2.10;96.60;;;;;;4916574;29;20032;-85
2022/02/02 05:55:40;;;;;;;31.02;14.00;;;-2.10;96.90;;;;;;4900151;29;20533;-86
2022/02/02 05:58:08;;;;;;;29.13;12.75;;;-2.00;97.70;;;;;;4915852;29;20463;-86
2022/02/02 06:00:38;;;;;;;29.23;12.93;;;-1.90;97.50;;;;;;4904304;29;20036;-85
2022/02/02 06:03:14;;;;;;;27.30;12.63;;;-1.80;97.70;;;;;;4915366;29;20037;-86
2022/02/02 06:05:42;;;;;;;30.17;13.45;;;-1.80;99.90;;;;;;4926522;29;20039;-86
2022/02/02 06:08:15;;;;;;;30.90;14.63;;;-1.70;98.30;;;;;;4919853;29;20035;-85
2022/02/02 06:10:42;;;;;;;30.20;14.55;;;-1.70;98.30;;;;;;4912118;29;20034;-88
2022/02/02 06:13:09;;;;;;;35.42;15.23;;;-1.60;98.30;;;;;;4910977;29;20047;-86
2022/02/02 06:15:36;;;;;;;35.88;15.73;;;-1.50;98.70;;;;;;4907460;29;20040;-85
2022/02/02 06:18:04;;;;;;;37.83;16.92;;;-1.50;98.70;;;;;;4914416;29;20030;-86
2022/02/02 06:20:29;;;;;;;31.05;15.25;;;-1.50;99.10;;;;;;4906635;29;20032;-87
2022/02/02 06:23:14;;;;;;;33.65;15.23;;;-1.50;99.10;;;;;;4920218;29;20092;-87
2022/02/02 06:25:46;;;;;;;31.73;15.32;;;-1.40;99.30;;;;;;4922293;29;20071;-85
2022/02/02 06:28:25;;;;;;;41.58;17.13;;;-1.30;99.80;;;;;;4922835;29;20031;-88
2022/02/02 06:31:01;;;;;;;36.58;15.60;;;-1.30;99.90;;;;;;4920546;29;20060;-88
2022/02/02 06:33:33;;;;;;;38.85;15.63;;;-1.20;99.80;;;;;;4923105;29;20423;-86
2022/02/02 06:36:00;;;;;;;45.42;17.80;;;-1.20;99.90;;;;;;4920068;29;20352;-85
2022/02/02 06:38:29;;;;;;;50.13;19.92;;;-1.10;99.90;;;;;;4901852;29;20024;-87
2022/02/02 06:40:57;;;;;;;47.35;19.70;;;-1.10;99.90;;;;;;4918905;29;20106;-88
2022/02/02 06:43:24;;;;;;;48.20;18.77;;;-1.10;99.90;;;;;;4903490;29;20036;-89
2022/02/02 06:46:00;;;;;;;45.65;17.98;;;-1.00;99.90;;;;;;4903395;29;20071;-90
2022/02/02 06:48:29;;;;;;;47.83;18.75;;;-1.00;99.90;;;;;;4903463;29;20033;-90
2022/02/02 06:51:04;;;;;;;40.28;17.70;;;-1.00;99.90;;;;;;4903241;29;20032;-89
2022/02/02 06:53:43;;;;;;;38.85;15.63;;;-1.00;99.90;;;;;;4925232;29;20035;-90
2022/02/02 06:56:30;;;;;;;53.03;17.42;;;-0.90;99.90;;;;;;4922585;29;20031;-89
2022/02/02 06:59:35;;;;;;;28.45;13.10;;;-0.90;99.90;;;;;;4922157;29;20028;-89
2022/02/02 07:16:24;;;;;;;29.05;13.40;;;-0.40;99.90;;;;;;4923292;29;20095;-85
2022/02/02 07:19:04;;;;;;;28.60;12.98;;;-0.30;99.90;;;;;;4918008;29;20028;-90
2022/02/02 07:32:24;;;;;;;52.67;22.63;;;0.30;99.90;;;;;;4921272;29;20115;-83
2022/02/02 07:35:07;;;;;;;44.33;18.42;;;0.30;99.90;;;;;;4902391;29;20087;-84
2022/02/02 07:37:39;;;;;;;33.42;15.77;;;0.40;99.90;;;;;;4900727;29;20471;-84
2022/02/02 07:40:09;;;;;;;34.95;15.57;;;0.30;99.90;;;;;;4917102;29;20059;-85
2022/02/02 07:42:41;;;;;;;34.10;14.93;;;0.20;99.90;;;;;;4918138;29;20473;-86
2022/02/02 07:45:10;;;;;;;34.45;13.63;;;0.20;99.90;;;;;;4919527;29;20034;-84
2022/02/02 07:47:45;;;;;;;25.65;12.30;;;0.20;99.90;;;;;;4902133;29;20157;-84
2022/02/02 07:50:15;;;;;;;24.85;12.38;;;0.20;99.90;;;;;;4903697;29;20063;-86
2022/02/02 07:52:45;;;;;;;27.85;11.65;;;0.20;99.90;;;;;;4901101;29;20123;-87
2022/02/02 07:55:13;;;;;;;22.30;11.68;;;0.20;99.90;;;;;;4902276;29;20044;-85
2022/02/02 07:57:43;;;;;;;28.48;13.75;;;0.40;99.90;;;;;;4902356;29;20062;-84
2022/02/02 08:00:17;;;;;;;22.02;11.88;;;0.50;99.90;;;;;;4917404;29;20039;-85
2022/02/02 08:05:11;;;;;;;38.47;18.05;;;0.90;99.90;;;;;;4928419;29;20107;-85
2022/02/02 08:07:43;;;;;;;36.58;17.92;;;1.20;99.90;;;;;;4925694;29;20047;-85
2022/02/02 08:10:19;;;;;;;44.35;22.33;;;1.50;99.90;;;;;;4925728;29;20072;-86
2022/02/02 08:12:53;;;;;;;44.85;23.48;;;1.80;99.90;;;;;;4907594;29;20095;-85
2022/02/02 08:15:21;;;;;;;39.38;20.77;;;2.00;99.90;;;;;;4923261;29;20023;-84
2022/02/02 08:17:49;;;;;;;34.50;19.00;;;2.10;99.20;;;;;;4910129;29;20028;-91
2022/02/02 08:20:15;;;;;;;58.72;32.22;;;2.20;98.60;;;;;;4920317;29;20491;-86
2022/02/02 08:22:41;;;;;;;40.30;21.30;;;2.30;97.60;;;;;;4906676;29;20391;-82
2022/02/02 08:25:10;;;;;;;38.55;20.63;;;2.30;96.60;;;;;;4904768;29;20028;-84
2022/02/02 08:27:41;;;;;;;35.53;17.25;;;2.30;95.40;;;;;;4913985;29;20039;-84
2022/02/02 08:30:10;;;;;;;;;;;2.40;93.90;;;;;;4927679;29;20055;-84
2022/02/02 08:32:57;;;;;;;33.75;15.68;;;2.20;92.70;;;;;;4901508;29;19918;-84
2022/02/02 08:35:24;;;;;;;35.75;18.60;;;2.10;93.10;;;;;;4918171;29;20119;-84
2022/02/02 08:37:59;;;;;;;33.42;16.88;;;2.00;92.90;;;;;;4899671;29;20369;-88
2022/02/02 08:40:31;;;;;;;44.75;20.73;;;1.90;92.70;;;;;;4920643;29;20043;-86
2022/02/02 08:43:02;;;;;;;36.35;16.42;;;1.80;93.00;;;;;;4903577;29;20028;-86
2022/02/02 08:45:34;;;;;;;30.00;15.32;;;1.70;93.70;;;;;;4907661;29;20024;-85
2022/02/02 08:48:06;;;;;;;24.80;14.23;;;1.70;93.80;;;;;;4901087;29;20044;-86
2022/02/02 08:50:56;;;;;;;28.60;15.27;;;1.70;94.20;;;;;;4901194;29;20046;-84
2022/02/02 08:58:45;;;;;;;35.95;16.83;;;1.90;94.60;;;;;;4936961;29;20035;-85
2022/02/02 09:01:25;;;;;;;32.67;17.40;;;2.00;95.30;;;;;;4919940;29;20038;-86
2022/02/02 09:06:35;;;;;;;35.80;18.17;;;2.30;93.90;;;;;;4936918;29;20035;-87
2022/02/02 09:25:20;;;;;;;27.73;15.10;;;3.00;90.60;;;;;;4930793;29;20067;-89
2022/02/02 09:35:59;;;;;;;32.58;16.30;;;3.50;88.10;;;;;;4919629;29;20055;-87
2022/02/02 09:38:25;;;;;;;30.58;15.13;;;3.50;87.40;;;;;;4917792;29;20028;-89
2022/02/02 09:43:23;;;;;;;28.27;15.20;;;3.60;87.00;;;;;;4917314;29;20036;-88
2022/02/02 09:45:57;;;;;;;30.75;16.10;;;3.70;87.30;;;;;;4904292;29;20032;-89
2022/02/02 09:48:31;;;;;;;24.23;14.52;;;3.70;86.50;;;;;;4902307;29;20435;-90
2022/02/02 09:51:04;;;;;;;30.55;15.52;;;3.80;85.30;;;;;;4901168;29;20035;-90
2022/02/02 09:53:39;;;;;;;33.55;16.20;;;3.90;85.10;;;;;;4917812;29;20024;-89
2022/02/02 09:56:19;;;;;;;34.35;17.98;;;3.90;83.80;;;;;;4901573;29;20039;-87
2022/02/02 10:05:08;;;;;;;19.60;10.52;;;4.00;82.50;;;;;;4915557;29;20388;-87
2022/02/02 10:15:22;;;;;;;19.33;10.68;;;5.10;79.20;;;;;;4921571;29;20032;-85
2022/02/02 10:18:04;;;;;;;19.48;10.63;;;5.30;78.40;;;;;;4909165;29;20029;-86
2022/02/02 10:20:30;;;;;;;22.05;10.82;;;5.50;77.20;;;;;;4930777;29;20032;-89
2022/02/02 10:22:58;;;;;;;21.48;11.55;;;5.60;77.80;;;;;;4923518;29;20105;-87
2022/02/02 10:25:31;;;;;;;19.73;10.60;;;5.80;77.10;;;;;;4918705;29;20087;-84
2022/02/02 10:28:11;;;;;;;16.08;8.25;;;6.00;74.40;;;;;;4905065;29;20064;-84
2022/02/02 10:30:37;;;;;;;17.35;8.88;;;6.10;73.30;;;;;;4904333;29;20375;-85
2022/02/02 10:33:05;;;;;;;19.08;8.68;;;6.00;71.40;;;;;;4903440;29;20040;-83
2022/02/02 10:35:37;;;;;;;22.45;10.40;;;6.00;71.40;;;;;;4922186;29;20032;-88
2022/02/02 10:38:08;;;;;;;25.52;11.05;;;6.20;71.10;;;;;;4938345;29;20106;-83
2022/02/02 10:40:48;;;;;;;22.10;9.55;;;6.50;70.10;;;;;;4929864;29;20027;-83
2022/02/02 10:43:28;;;;;;;18.77;9.80;;;6.80;69.10;;;;;;4939854;29;20039;-86
2022/02/02 10:45:54;;;;;;;19.23;9.15;;;7.00;68.20;;;;;;4923320;29;20060;-87
2022/02/02 10:48:35;;;;;;;23.80;12.15;;;7.20;66.60;;;;;;4924007;29;20471;-89
2022/02/02 10:51:10;;;;;;;18.50;10.50;;;7.30;67.20;;;;;;4921989;29;20038;-85
2022/02/02 10:53:47;;;;;;;22.17;12.13;;;7.70;67.00;;;;;;4916236;29;20103;-86
2022/02/02 10:56:29;;;;;;;26.60;13.68;;;8.00;64.70;;;;;;4926651;29;20032;-85
2022/02/02 10:59:45;;;;;;;23.08;11.90;;;8.00;64.70;;;;;;4920542;29;20530;-83
2022/02/02 11:07:01;;;;;;;36.28;17.38;;;8.30;64.40;;;;;;4919902;29;20036;-84
2022/02/02 11:09:28;;;;;;;52.00;22.73;;;8.40;63.10;;;;;;4920898;29;20024;-87
2022/02/02 11:11:59;;;;;;;55.80;24.95;;;8.30;63.10;;;;;;4904499;29;20483;-83
2022/02/02 11:14:56;;;;;;;49.97;23.33;;;8.20;63.60;;;;;;4904775;29;20565;-85
2022/02/02 11:17:47;;;;;;;66.05;36.47;;;8.40;63.70;;;;;;4937558;29;20039;-84
2022/02/02 11:20:19;;;;;;;37.28;21.42;;;8.50;60.30;;;;;;4918625;29;20032;-85
2022/02/02 11:22:53;;;;;;;27.90;15.50;;;8.90;62.80;;;;;;4903326;29;20054;-84
2022/02/02 11:25:24;;;;;;;20.27;10.55;;;9.20;62.80;;;;;;4919737;29;20067;-85
2022/02/02 11:27:56;;;;;;;20.23;9.60;;;9.20;61.10;;;;;;4919316;29;20068;-84
2022/02/02 11:30:25;;;;;;;20.88;10.68;;;9.20;60.80;;;;;;4912123;29;20462;-86
2022/02/02 11:33:17;;;;;;;20.73;10.07;;;9.00;61.20;;;;;;4903261;29;20063;-85
2022/02/02 11:35:49;;;;;;;20.02;9.90;;;8.80;59.10;;;;;;4919908;29;20091;-86
2022/02/02 11:38:40;;;;;;;22.25;10.55;;;8.70;60.60;;;;;;4902195;29;20032;-84
2022/02/02 11:43:51;;;;;;;29.67;13.82;;;8.20;61.00;;;;;;4919415;29;20036;-85
2022/02/02 11:46:38;;;;;;;28.42;14.10;;;8.00;60.10;;;;;;4902136;29;20058;-85
2022/02/02 11:49:14;;;;;;;27.65;13.60;;;7.80;61.30;;;;;;4901779;29;20107;-84
2022/02/02 11:51:41;;;;;;;35.42;18.92;;;7.70;60.40;;;;;;4919212;29;20477;-84
2022/02/02 11:54:11;;;;;;;21.88;12.32;;;7.30;60.80;;;;;;4925094;29;20383;-83
2022/02/02 11:57:15;;;;;;;18.17;11.15;;;7.00;60.60;;;;;;4902280;29;20036;-85
2022/02/02 11:59:47;;;;;;;16.90;8.68;;;6.60;61.10;;;;;;4902502;29;20101;-85
2022/02/02 12:02:21;;;;;;;21.15;11.10;;;6.30;61.90;;;;;;4902706;29;20075;-84
2022/02/02 12:07:54;;;;;;;17.15;8.30;;;5.90;63.40;;;;;;4934021;29;20087;-85
2022/02/02 12:11:03;;;;;;;15.73;7.38;;;5.80;63.40;;;;;;4915164;29;20024;-84
2022/02/02 12:49:35;;;;;;;;;;;;;;;;;;;;;
2022/02/02 12:57:42;;;;;;;24.13;10.45;;;4.90;65.40;;;;;;4918218;29;20138;-82
2022/02/02 13:00:13;;;;;;;19.23;10.60;;;4.80;65.60;;;;;;4916471;29;20470;-82
2022/02/02 13:02:40;;;;;;;20.85;11.25;;;4.70;66.10;;;;;;4926896;29;20032;-88
2022/02/02 13:05:09;;;;;;;21.42;10.20;;;4.80;66.10;;;;;;4934241;29;20106;-88
2022/02/02 13:07:36;;;;;;;21.50;10.20;;;4.70;66.50;;;;;;4930285;29;20034;-90
2022/02/02 13:10:05;;;;;;;19.55;9.75;;;4.80;66.50;;;;;;4923166;29;20027;-89
2022/02/02 13:12:39;;;;;;;22.33;11.98;;;4.70;66.40;;;;;;4920464;29;20046;-85
2022/02/02 13:18:14;;;;;;;18.92;9.93;;;4.60;66.90;;;;;;4912199;29;20032;-85
2022/02/02 13:31:56;;;;;;;47.17;22.83;;;4.30;70.20;;;;;;4936729;29;20044;-85
2022/02/02 13:53:35;;;;;;;44.60;19.92;;;3.80;77.60;;;;;;4923767;29;20066;-87
2022/02/02 14:01:47;;;;;;;51.28;21.27;;;3.50;76.50;;;;;;4945734;29;20049;-85
2022/02/02 14:04:58;;;;;;;50.00;22.33;;;3.40;77.10;;;;;;4924973;29;20060;-85
2022/02/02 14:07:31;;;;;;;52.80;24.25;;;3.30;78.80;;;;;;4940655;29;20471;-84
2022/02/02 14:31:36;;;;;;;36.83;18.30;;;2.40;82.20;;;;;;4939845;29;20123;-84
2022/02/02 14:34:03;;;;;;;31.25;16.42;;;2.30;83.80;;;;;;4939340;29;20362;-82
2022/02/02 14:36:33;;;;;;;26.98;14.82;;;2.40;83.60;;;;;;4922339;29;20042;-84
2022/02/02 14:47:30;;;;;;;24.02;12.90;;;1.90;83.30;;;;;;4939272;29;20056;-86
2022/02/02 14:52:07;;;;;;;26.17;13.43;;;1.70;85.80;;;;;;4941397;29;20024;-86
2022/02/02 15:29:46;;;;;;;25.98;14.23;;;0.70;92.40;;;;;;4924501;29;20407;-87
2022/02/02 15:32:11;;;;;;;30.33;15.02;;;0.70;92.50;;;;;;4921695;29;20043;-84
2022/02/02 15:34:45;;;;;;;27.50;14.15;;;0.70;92.70;;;;;;4938620;29;20430;-87
2022/02/02 15:39:43;;;;;;;28.33;13.70;;;0.70;92.40;;;;;;4938301;29;20107;-87
2022/02/02 15:45:16;;;;;;;32.47;16.42;;;0.60;93.00;;;;;;4945591;29;20031;-85
2022/02/02 15:58:33;;;;;;;32.78;16.55;;;0.50;94.20;;;;;;4918406;29;20040;-84
2022/02/02 16:03:44;;;;;;;34.00;16.83;;;0.50;95.10;;;;;;4942440;29;20046;-84
2022/02/02 16:08:40;;;;;;;35.78;16.95;;;0.50;95.00;;;;;;4937866;29;20035;-84
2022/02/02 16:11:17;;;;;;;36.70;17.23;;;0.50;94.70;;;;;;4937834;29;20019;-85
2022/02/02 16:13:47;;;;;;;35.33;17.65;;;0.50;95.40;;;;;;4936672;29;20032;-85
2022/02/02 16:19:01;;;;;;;41.00;19.58;;;0.50;95.90;;;;;;4926181;29;20054;-91
2022/02/02 16:37:42;;;;;;;57.95;26.90;;;1.00;95.50;;;;;;4928434;29;20032;-87
2022/02/02 16:40:13;;;;;;;47.97;24.45;;;1.00;95.80;;;;;;4910119;29;20028;-89
2022/02/02 16:45:23;;;;;;;77.00;34.80;;;1.10;96.20;;;;;;4928074;29;20058;-89
2022/02/02 16:47:49;;;;;;;77.07;37.55;;;1.10;96.00;;;;;;4912982;29;20107;-90
2022/02/02 16:50:20;;;;;;;99.60;46.08;;;1.10;95.60;;;;;;4919836;29;20495;-88
2022/02/02 16:52:48;;;;;;;;;;;1.10;95.70;;;;;;4918147;29;20030;-86
2022/02/02 16:55:31;;;;;;;74.28;33.70;;;1.10;97.20;;;;;;4914586;29;19919;-87
2022/02/02 17:31:36;;;;;;;37.10;17.48;;;0.90;95.70;;;;;;4939548;29;20116;-93
2022/02/02 17:37:12;;;;;;;49.78;24.38;;;1.00;95.90;;;;;;4890257;29;20041;-95
2022/02/02 17:56:28;;;;;;;26.25;14.13;;;0.70;96.40;;;;;;4913791;29;20774;-89
2022/02/02 18:23:52;;;;;;;40.25;18.45;;;0.30;99.90;;;;;;4859809;29;20066;-90
2022/02/02 18:33:17;;;;;;;35.40;17.15;;;0.30;99.10;;;;;;4891479;29;20044;-89
2022/02/02 20:11:34;;;;;;;41.05;18.40;;;-0.10;99.90;;;;;;4858362;29;20074;-89
2022/02/02 20:14:02;;;;;;;39.63;18.92;;;-0.10;99.90;;;;;;4884094;29;20676;-91
2022/02/02 20:16:27;;;;;;;45.50;22.77;;;0.00;99.90;;;;;;4897708;29;20024;-84
2022/02/02 20:18:56;;;;;;;32.60;16.45;;;0.10;99.90;;;;;;4897591;29;20128;-81
2022/02/02 20:21:31;;;;;;;27.63;14.32;;;0.10;99.90;;;;;;4895811;29;20087;-83
2022/02/02 20:24:01;;;;;;;27.80;14.43;;;0.20;99.90;;;;;;4880217;29;20483;-82
2022/02/02 20:26:29;;;;;;;24.25;12.98;;;0.20;99.90;;;;;;4879126;29;20033;-83
2022/02/02 20:28:57;;;;;;;30.08;13.70;;;0.30;99.90;;;;;;4881665;29;20454;-84
2022/02/02 20:31:23;;;;;;;28.42;13.32;;;0.30;99.90;;;;;;4884833;29;20052;-82
2022/02/02 20:33:49;;;;;;;26.30;12.63;;;0.40;99.90;;;;;;4902073;29;20049;-83
2022/02/02 20:36:15;;;;;;;23.13;12.65;;;0.40;99.90;;;;;;4898529;29;20036;-83
2022/02/02 20:38:41;;;;;;;26.80;13.07;;;0.40;99.90;;;;;;4896514;29;20041;-83
2022/02/02 20:41:07;;;;;;;20.17;10.75;;;0.50;99.90;;;;;;4896250;29;20020;-84
2022/02/02 20:43:45;;;;;;;20.98;9.98;;;0.60;99.90;;;;;;4880116;29;20040;-84
2022/02/02 21:08:35;;;;;;;24.30;12.18;;;0.60;99.90;;;;;;4887929;29;20561;-85
2022/02/02 21:10:33;;;;;;;23.20;11.98;;;0.60;99.90;;;;;;4879786;29;20112;-84
2022/02/02 21:15:47;;;;;;;33.58;15.98;;;0.70;99.90;;;;;;4887300;29;20574;-83
2022/02/02 21:18:17;;;;;;;32.92;15.43;;;0.70;99.90;;;;;;4863366;29;20036;-85
2022/02/02 21:20:52;;;;;;;27.80;14.27;;;0.70;99.90;;;;;;4867039;29;20111;-84
2022/02/02 21:29:07;;;;;;;28.95;14.65;;;0.80;99.90;;;;;;4839975;29;20034;-84
2022/02/02 21:32:55;;;;;;;34.17;15.85;;;0.80;99.90;;;;;;4850067;29;20262;-84
2022/02/02 21:34:51;;;;;;;30.67;14.88;;;0.80;99.90;;;;;;4854270;29;20053;-85
2022/02/02 21:37:18;;;;;;;31.13;15.57;;;0.80;99.90;;;;;;4857339;29;20101;-84
2022/02/02 21:39:55;;;;;;;32.88;15.73;;;0.80;99.90;;;;;;4867085;29;20124;-84
2022/02/02 21:45:44;;;;;;;30.77;14.65;;;0.70;99.90;;;;;;4897613;29;20048;-85
2022/02/02 21:48:12;;;;;;;28.58;14.05;;;0.60;99.90;;;;;;4874960;29;20028;-84
2022/02/02 21:54:12;;;;;;;29.13;12.95;;;0.40;99.90;;;;;;4874370;29;20053;-86
2022/02/02 21:56:38;;;;;;;29.88;14.00;;;0.30;99.90;;;;;;4892600;29;20043;-84
2022/02/02 21:59:05;;;;;;;32.42;13.77;;;0.30;99.90;;;;;;4865614;29;20124;-83
2022/02/02 22:01:35;;;;;;;27.60;12.85;;;0.20;99.90;;;;;;4882268;29;20029;-86
2022/02/02 22:04:04;;;;;;;26.85;13.10;;;0.20;99.90;;;;;;4875685;29;20429;-85
2022/02/02 22:06:33;;;;;;;27.85;13.07;;;0.10;99.90;;;;;;4880197;29;20479;-85
2022/02/02 22:09:03;;;;;;;27.55;12.82;;;0.10;99.90;;;;;;4866685;29;20058;-85
2022/02/02 22:11:29;;;;;;;28.27;13.65;;;0.00;99.90;;;;;;4884666;29;20467;-84
2022/02/02 22:14:01;;;;;;;32.13;15.23;;;0.00;99.90;;;;;;4870678;29;20037;-85
2022/02/02 22:16:30;;;;;;;28.75;13.98;;;-0.10;99.90;;;;;;4867156;29;20029;-84
2022/02/02 22:18:57;;;;;;;33.50;15.75;;;-0.10;99.90;;;;;;4876418;29;20032;-83
2022/02/02 22:21:29;;;;;;;33.03;15.10;;;-0.20;99.90;;;;;;4885508;29;20084;-83
2022/02/02 22:23:56;;;;;;;34.42;15.50;;;-0.30;99.90;;;;;;4888039;29;20064;-84
2022/02/02 22:26:26;;;;;;;35.38;15.32;;;-0.30;99.90;;;;;;4906807;29;20032;-83
2022/02/02 22:28:57;;;;;;;30.67;14.27;;;-0.30;99.90;;;;;;4871361;29;20039;-84
2022/02/02 22:31:23;;;;;;;30.95;14.45;;;-0.30;99.90;;;;;;4885148;29;20143;-84
2022/02/02 22:33:49;;;;;;;31.73;14.18;;;-0.40;99.90;;;;;;4884958;29;20044;-85
2022/02/02 22:36:17;;;;;;;29.40;14.88;;;-0.40;99.90;;;;;;4901709;29;20033;-85
2022/02/02 22:38:44;;;;;;;32.55;15.18;;;-0.50;99.90;;;;;;4898852;29;20132;-84
2022/02/02 22:41:12;;;;;;;26.95;13.30;;;-0.50;99.90;;;;;;4885181;29;20431;-85
2022/02/02 22:43:45;;;;;;;27.45;14.23;;;-0.50;99.90;;;;;;4885424;29;20489;-84
2022/02/02 22:46:12;;;;;;;31.33;14.68;;;-0.60;99.90;;;;;;4901059;29;20037;-85
2022/02/02 22:48:39;;;;;;;38.42;19.13;;;-0.60;99.90;;;;;;4902081;29;20080;-84
2022/02/02 22:51:05;;;;;;;70.70;31.80;;;-0.60;99.90;;;;;;4909618;29;20033;-85
2022/02/02 22:53:34;;;;;;;55.85;27.17;;;-0.70;99.90;;;;;;4894879;29;20108;-85
2022/02/02 22:56:00;;;;;;;59.15;27.25;;;-0.70;99.90;;;;;;4906008;29;20033;-85
2022/02/02 22:58:25;;;;;;;69.07;30.67;;;-0.70;99.90;;;;;;4884766;29;20479;-85
2022/02/02 23:00:51;;;;;;;65.03;28.15;;;-0.70;99.90;;;;;;4901936;29;20033;-85
2022/02/02 23:03:23;;;;;;;61.00;26.73;;;-0.70;99.90;;;;;;4885404;29;20035;-85
2022/02/02 23:05:56;;;;;;;49.75;23.95;;;-0.80;99.90;;;;;;4886224;29;20032;-85
2022/02/02 23:08:26;;;;;;;58.53;24.80;;;-0.70;99.90;;;;;;4866789;29;20105;-85
2022/02/02 23:10:53;;;;;;;48.45;22.63;;;-0.70;99.90;;;;;;4866526;29;20036;-87
2022/02/02 23:13:19;;;;;;;43.15;19.35;;;-0.80;99.90;;;;;;4866569;29;20068;-86
2022/02/02 23:16:03;;;;;;;39.28;18.77;;;-0.80;99.90;;;;;;4869376;29;20051;-86
2022/02/02 23:18:33;;;;;;;39.72;18.02;;;-0.80;99.90;;;;;;4883824;29;20040;-84
2022/02/02 23:21:06;;;;;;;37.03;17.60;;;-0.70;99.90;;;;;;4870018;29;20040;-85
2022/02/02 23:23:39;;;;;;;38.88;17.83;;;-0.70;99.90;;;;;;4868220;29;20139;-84
2022/02/02 23:26:05;;;;;;;43.05;20.00;;;-0.70;99.90;;;;;;4876702;29;20037;-84
2022/02/02 23:28:40;;;;;;;37.00;18.67;;;-0.70;99.90;;;;;;4884419;29;20134;-85
2022/02/02 23:31:07;;;;;;;35.88;17.58;;;-0.70;99.90;;;;;;4884643;29;20048;-85
2022/02/02 23:33:35;;;;;;;34.35;15.27;;;-0.70;99.90;;;;;;4899762;29;20040;-84
2022/02/02 23:36:02;;;;;;;33.28;16.45;;;-0.70;99.90;;;;;;4900230;29;20029;-86
2022/02/02 23:38:29;;;;;;;54.15;23.40;;;-0.80;99.90;;;;;;4900184;29;20040;-86
2022/02/02 23:43:39;;;;;;;52.00;23.50;;;-0.80;99.90;;;;;;4901050;29;20051;-85
2022/02/02 23:46:15;;;;;;;155.15;61.00;;;-0.80;99.90;;;;;;4899613;29;20029;-85
2022/02/02 23:48:47;;;;;;;141.35;50.38;;;-0.80;99.90;;;;;;4901111;29;20040;-85
2022/02/02 23:51:24;;;;;;;97.57;40.80;;;-0.80;99.90;;;;;;4868985;29;20033;-85
2022/02/02 23:53:51;;;;;;;75.05;32.72;;;-0.80;99.90;;;;;;4876366;29;20383;-84
2022/02/02 23:56:39;;;;;;;64.38;27.52;;;-0.80;99.90;;;;;;4901019;29;20029;-85
2022/02/02 23:59:15;;;;;;;50.28;22.38;;;-0.90;99.90;;;;;;4884620;29;20036;-85
